createdAt,value
2019-05-21T00:01:47.910Z,12.80
2019-05-21T00:04:27.836Z,12.80
2019-05-21T00:06:47.785Z,12.90
2019-05-21T00:09:16.817Z,12.80
2019-05-21T00:11:45.837Z,12.80
2019-05-21T00:14:14.804Z,12.70
2019-05-21T00:16:43.845Z,12.70
2019-05-21T00:19:12.860Z,12.80
2019-05-21T00:22:01.189Z,12.80
2019-05-21T00:24:30.122Z,12.70
2019-05-21T00:26:59.169Z,12.70
2019-05-21T00:30:04.071Z,12.80
2019-05-21T00:33:09.168Z,12.70
2019-05-21T00:36:15.925Z,12.70
2019-05-21T00:39:20.872Z,12.70
2019-05-21T00:42:04.001Z,12.60
2019-05-21T00:44:35.369Z,12.70
2019-05-21T00:47:05.012Z,12.70
2019-05-21T00:49:34.202Z,12.60
2019-05-21T00:52:08.596Z,12.60
2019-05-21T00:54:34.161Z,12.70
2019-05-21T00:57:03.139Z,12.70
2019-05-21T00:59:32.024Z,12.60
2019-05-21T01:02:01.025Z,12.50
2019-05-21T01:04:30.029Z,12.60
2019-05-21T01:06:58.960Z,12.60
2019-05-21T01:09:27.914Z,12.60
2019-05-21T01:11:57.025Z,12.60
2019-05-21T01:14:26.016Z,12.60
2019-05-21T01:16:55.091Z,12.60
2019-05-21T01:19:24.101Z,12.50
2019-05-21T01:21:53.221Z,12.50
2019-05-21T01:24:22.183Z,12.50
2019-05-21T01:26:51.063Z,12.40
2019-05-21T01:29:20.070Z,12.40
2019-05-21T01:31:49.045Z,12.40
2019-05-21T01:34:18.024Z,12.40
2019-05-21T01:36:47.028Z,12.40
2019-05-21T01:39:16.173Z,12.30
2019-05-21T01:41:45.189Z,12.30
2019-05-21T01:44:14.061Z,12.40
2019-05-21T01:46:43.033Z,12.40
2019-05-21T01:49:12.386Z,12.30
2019-05-21T01:51:41.565Z,12.40
2019-05-21T01:54:10.483Z,12.40
2019-05-21T01:56:39.357Z,12.40
2019-05-21T01:59:08.270Z,12.30
2019-05-21T02:01:37.234Z,12.40
2019-05-21T02:04:06.178Z,12.30
2019-05-21T02:06:35.123Z,12.30
2019-05-21T02:09:05.557Z,12.20
2019-05-21T02:11:34.517Z,12.20
2019-05-21T02:14:03.574Z,12.20
2019-05-21T02:16:32.610Z,12.20
2019-05-21T02:19:01.555Z,12.20
2019-05-21T02:21:30.528Z,12.20
2019-05-21T02:23:59.487Z,12.20
2019-05-21T02:26:28.601Z,12.10
2019-05-21T02:28:57.631Z,12.10
2019-05-21T02:31:26.908Z,12.10
2019-05-21T02:33:55.827Z,12.10
2019-05-21T02:36:24.914Z,12.10
2019-05-21T02:38:53.901Z,12.10
2019-05-21T02:41:22.857Z,12.10
2019-05-21T02:43:51.895Z,12.10
2019-05-21T02:46:20.853Z,12.10
2019-05-21T02:48:49.909Z,12.10
2019-05-21T02:51:19.125Z,12.10
2019-05-21T02:53:48.229Z,12.10
2019-05-21T02:56:17.137Z,12.10
2019-05-21T02:58:46.062Z,12.10
2019-05-21T03:01:33.981Z,12.10
2019-05-21T03:04:03.559Z,12.10
2019-05-21T03:06:32.504Z,12.10
2019-05-21T03:09:01.528Z,12.10
2019-05-21T03:11:30.479Z,12.10
2019-05-21T03:13:59.617Z,12.10
2019-05-21T03:16:28.498Z,12.10
2019-05-21T03:18:57.503Z,12.10
2019-05-21T03:21:26.520Z,12.10
2019-05-21T03:23:56.313Z,12.10
2019-05-21T03:26:25.218Z,12.10
2019-05-21T03:28:54.156Z,12.10
2019-05-21T03:31:23.070Z,12.10
2019-05-21T03:33:52.225Z,12.10
2019-05-21T03:36:32.885Z,12.00
2019-05-21T03:38:51.894Z,12.10
2019-05-21T03:41:21.109Z,12.10
2019-05-21T03:43:50.035Z,12.10
2019-05-21T03:46:19.080Z,12.00
2019-05-21T03:48:48.047Z,12.10
2019-05-21T03:51:16.918Z,12.10
2019-05-21T03:53:45.846Z,12.10
2019-05-21T03:56:14.744Z,12.10
2019-05-21T03:58:44.049Z,12.10
2019-05-21T04:01:12.925Z,12.10
2019-05-21T04:03:41.896Z,12.10
2019-05-21T04:06:10.906Z,12.10
2019-05-21T04:08:39.790Z,12.10
2019-05-21T04:11:08.689Z,12.10
2019-05-21T04:13:37.688Z,12.00
2019-05-21T04:16:24.406Z,12.10
2019-05-21T04:19:00.556Z,12.10
2019-05-21T04:21:29.582Z,12.10
2019-05-21T04:23:58.634Z,12.10
2019-05-21T04:26:27.518Z,12.00
2019-05-21T04:28:56.586Z,12.10
2019-05-21T04:31:25.625Z,12.10
2019-05-21T04:33:54.621Z,12.10
2019-05-21T04:36:23.684Z,12.10
2019-05-21T04:38:52.794Z,12.10
2019-05-21T04:41:21.610Z,12.10
2019-05-21T04:43:50.674Z,12.10
2019-05-21T04:46:19.645Z,12.10
2019-05-21T04:48:48.524Z,12.10
2019-05-21T04:51:17.400Z,12.10
2019-05-21T04:53:46.339Z,12.00
2019-05-21T04:56:15.441Z,12.00
2019-05-21T04:58:44.414Z,12.00
2019-05-21T05:01:13.442Z,12.00
2019-05-21T05:03:42.279Z,12.00
2019-05-21T05:06:11.273Z,12.00
2019-05-21T05:08:40.169Z,12.00
2019-05-21T05:11:09.117Z,12.00
2019-05-21T05:13:38.113Z,12.00
2019-05-21T05:16:07.127Z,12.00
2019-05-21T05:18:36.037Z,12.00
2019-05-21T05:21:05.017Z,12.00
2019-05-21T05:23:34.045Z,12.00
2019-05-21T05:26:03.112Z,12.00
2019-05-21T05:28:32.017Z,12.00
2019-05-21T05:31:01.053Z,12.00
2019-05-21T05:33:30.043Z,11.90
2019-05-21T05:35:59.028Z,12.00
2019-05-21T05:38:28.476Z,12.00
2019-05-21T05:40:57.540Z,12.00
2019-05-21T05:43:26.585Z,12.00
2019-05-21T05:45:55.574Z,12.00
2019-05-21T05:48:25.111Z,12.00
2019-05-21T05:50:56.059Z,12.00
2019-05-21T05:53:24.955Z,12.00
2019-05-21T05:55:53.957Z,11.90
2019-05-21T05:58:23.006Z,12.00
2019-05-21T06:00:52.062Z,12.00
2019-05-21T06:03:21.074Z,12.00
2019-05-21T06:05:50.028Z,11.90
2019-05-21T06:08:19.172Z,11.90
2019-05-21T06:10:48.224Z,11.90
2019-05-21T06:13:17.174Z,11.90
2019-05-21T06:15:46.106Z,11.90
2019-05-21T06:18:15.038Z,11.90
2019-05-21T06:20:43.983Z,11.90
2019-05-21T06:23:12.930Z,11.90
2019-05-21T06:25:41.891Z,11.80
2019-05-21T06:28:11.080Z,11.80
2019-05-21T06:30:40.085Z,11.80
2019-05-21T06:33:09.341Z,11.80
2019-05-21T06:35:38.249Z,11.80
2019-05-21T06:38:17.265Z,11.80
2019-05-21T06:40:38.591Z,11.80
2019-05-21T06:43:07.873Z,11.80
2019-05-21T06:45:36.820Z,11.80
2019-05-21T06:48:06.007Z,11.80
2019-05-21T06:50:37.446Z,11.80
2019-05-21T06:53:05.684Z,11.70
2019-05-21T06:55:34.645Z,11.70
2019-05-21T06:58:03.708Z,11.70
2019-05-21T07:00:34.556Z,11.80
2019-05-21T07:03:03.587Z,11.70
2019-05-21T07:05:32.478Z,11.70
2019-05-21T07:08:01.540Z,11.70
2019-05-21T07:10:30.472Z,11.70
2019-05-21T07:12:59.548Z,11.70
2019-05-21T07:15:28.500Z,11.70
2019-05-21T07:17:57.513Z,11.70
2019-05-21T07:20:26.548Z,11.70
2019-05-21T07:22:55.467Z,11.70
2019-05-21T07:25:24.675Z,11.70
2019-05-21T07:27:53.632Z,11.70
2019-05-21T07:30:22.637Z,11.70
2019-05-21T07:32:52.241Z,11.70
2019-05-21T07:35:21.638Z,11.70
2019-05-21T07:37:50.784Z,11.70
2019-05-21T07:40:19.810Z,11.70
2019-05-21T07:42:48.781Z,11.70
2019-05-21T07:45:17.812Z,11.70
2019-05-21T07:47:46.945Z,11.70
2019-05-21T07:50:15.892Z,11.80
2019-05-21T07:52:44.850Z,11.80
2019-05-21T07:55:13.821Z,11.80
2019-05-21T07:57:42.861Z,11.80
2019-05-21T08:00:11.832Z,11.80
2019-05-21T08:02:40.904Z,11.90
2019-05-21T08:05:09.951Z,11.90
2019-05-21T08:07:39.053Z,11.90
2019-05-21T08:10:07.898Z,11.90
2019-05-21T08:12:39.286Z,12.00
2019-05-21T08:15:08.398Z,12.00
2019-05-21T08:17:37.284Z,12.00
2019-05-21T08:20:09.998Z,12.00
2019-05-21T08:22:37.465Z,12.00
2019-05-21T08:25:06.518Z,12.10
2019-05-21T08:27:35.477Z,12.00
2019-05-21T08:30:04.934Z,12.00
2019-05-21T08:32:33.880Z,12.10
2019-05-21T08:35:02.977Z,12.10
2019-05-21T08:37:32.067Z,12.10
2019-05-21T08:40:01.031Z,12.10
2019-05-21T08:42:29.989Z,12.10
2019-05-21T08:44:58.962Z,12.10
2019-05-21T08:47:27.885Z,12.10
2019-05-21T08:49:57.041Z,12.00
2019-05-21T08:52:26.024Z,12.00
2019-05-21T08:54:56.679Z,12.10
2019-05-21T08:57:25.901Z,12.10
2019-05-21T08:59:54.904Z,12.10
2019-05-21T09:02:25.097Z,12.20
2019-05-21T09:04:54.046Z,12.20
2019-05-21T09:07:23.111Z,12.20
2019-05-21T09:09:52.304Z,12.20
2019-05-21T09:12:21.486Z,12.20
2019-05-21T09:14:50.579Z,12.20
2019-05-21T09:17:19.553Z,12.30
2019-05-21T09:19:48.531Z,12.30
2019-05-21T09:22:17.640Z,12.30
2019-05-21T09:24:46.666Z,12.40
2019-05-21T09:27:15.662Z,12.30
2019-05-21T09:29:44.646Z,12.40
2019-05-21T09:32:13.738Z,12.40
2019-05-21T09:34:48.556Z,12.30
2019-05-21T09:37:19.666Z,12.40
2019-05-21T09:39:44.183Z,12.40
2019-05-21T09:42:13.350Z,12.40
2019-05-21T09:44:42.401Z,12.40
2019-05-21T09:47:11.408Z,12.40
2019-05-21T09:49:40.386Z,12.40
2019-05-21T09:52:09.349Z,12.40
2019-05-21T09:54:38.537Z,12.30
2019-05-21T09:57:09.553Z,12.40
2019-05-21T10:00:06.404Z,12.40
2019-05-21T10:02:35.721Z,12.50
2019-05-21T10:05:05.108Z,12.50
2019-05-21T10:07:40.126Z,12.50
2019-05-21T10:10:05.878Z,12.50
2019-05-21T10:12:34.780Z,12.60
2019-05-21T10:15:03.823Z,12.50
2019-05-21T10:17:32.764Z,12.60
2019-05-21T10:20:01.735Z,12.60
2019-05-21T10:22:30.740Z,12.60
2019-05-21T10:24:59.710Z,12.60
2019-05-21T10:27:28.788Z,12.60
2019-05-21T10:29:58.003Z,12.50
2019-05-21T10:32:26.917Z,12.50
2019-05-21T10:34:55.852Z,12.50
2019-05-21T10:37:24.835Z,12.50
2019-05-21T10:39:53.737Z,12.50
2019-05-21T10:42:22.746Z,12.50
2019-05-21T10:44:51.705Z,12.50
2019-05-21T10:47:20.907Z,12.50
2019-05-21T10:49:49.994Z,12.60
2019-05-21T10:52:18.917Z,12.50
2019-05-21T10:54:48.074Z,12.50
2019-05-21T10:57:17.093Z,12.50
2019-05-21T10:59:46.195Z,12.50
2019-05-21T11:02:23.250Z,12.50
2019-05-21T11:05:14.413Z,12.50
2019-05-21T11:07:43.725Z,12.60
2019-05-21T11:10:13.322Z,12.60
2019-05-21T11:12:42.924Z,12.50
2019-05-21T11:15:12.086Z,12.60
2019-05-21T11:17:53.661Z,12.50
2019-05-21T11:20:11.784Z,12.50
2019-05-21T11:22:40.758Z,12.50
2019-05-21T11:25:09.829Z,12.50
2019-05-21T11:27:38.722Z,12.50
2019-05-21T11:30:08.042Z,12.50
2019-05-21T11:32:37.055Z,12.50
2019-05-21T11:35:06.246Z,12.50
2019-05-21T11:37:36.465Z,12.50
2019-05-21T11:40:08.358Z,12.60
2019-05-21T11:42:36.409Z,12.50
2019-05-21T11:45:06.186Z,12.60
2019-05-21T11:47:35.226Z,12.50
2019-05-21T11:50:05.870Z,12.60
2019-05-21T11:52:34.953Z,12.60
2019-05-21T11:55:04.950Z,12.70
2019-05-21T11:57:34.001Z,12.60
2019-05-21T12:00:03.403Z,12.60
2019-05-21T12:02:32.461Z,12.60
2019-05-21T12:05:01.600Z,12.60
2019-05-21T12:07:30.509Z,12.70
2019-05-21T12:09:59.522Z,12.70
2019-05-21T12:12:28.618Z,12.70
2019-05-21T12:14:57.784Z,12.80
2019-05-21T12:17:26.806Z,12.90
2019-05-21T12:19:55.747Z,12.80
2019-05-21T12:22:24.933Z,12.80
2019-05-21T12:24:54.002Z,12.90
2019-05-21T12:27:23.061Z,12.90
2019-05-21T12:29:52.247Z,13.00
2019-05-21T12:32:21.552Z,13.10
2019-05-21T12:34:50.727Z,13.10
2019-05-21T12:37:19.761Z,13.10
2019-05-21T12:39:48.991Z,13.10
2019-05-21T12:42:18.054Z,13.00
2019-05-21T12:44:47.088Z,13.00
2019-05-21T12:47:16.172Z,12.90
2019-05-21T12:49:45.173Z,12.90
2019-05-21T12:52:14.375Z,13.10
2019-05-21T12:54:43.374Z,13.10
2019-05-21T12:57:12.589Z,12.90
2019-05-21T12:59:41.756Z,12.90
2019-05-21T13:02:10.816Z,12.90
2019-05-21T13:04:39.852Z,12.80
2019-05-21T13:07:08.911Z,12.80
2019-05-21T13:09:38.631Z,12.80
2019-05-21T13:12:07.690Z,12.90
2019-05-21T13:14:36.716Z,12.90
2019-05-21T13:17:05.809Z,12.80
2019-05-21T13:19:35.024Z,12.80
2019-05-21T13:22:03.953Z,12.80
2019-05-21T13:24:33.028Z,12.80
2019-05-21T13:27:02.229Z,12.90
2019-05-21T13:29:31.267Z,12.80
2019-05-21T13:32:00.230Z,12.80
2019-05-21T13:34:29.318Z,12.80
2019-05-21T13:36:58.266Z,12.70
2019-05-21T13:39:27.328Z,12.80
2019-05-21T13:41:56.593Z,12.70
2019-05-21T13:44:25.576Z,12.70
2019-05-21T13:46:54.475Z,12.70
2019-05-21T13:49:23.543Z,12.80
2019-05-21T13:51:52.607Z,12.90
2019-05-21T13:54:21.617Z,12.90
2019-05-21T13:56:50.575Z,12.80
2019-05-21T13:59:19.857Z,12.90
2019-05-21T14:01:48.886Z,12.80
2019-05-21T14:04:17.940Z,13.00
2019-05-21T14:06:46.901Z,12.90
2019-05-21T14:09:15.980Z,12.90
2019-05-21T14:11:45.222Z,12.70
2019-05-21T14:14:14.226Z,12.80
2019-05-21T14:16:43.323Z,12.80
2019-05-21T14:19:12.361Z,12.80
2019-05-21T14:21:41.460Z,12.90
2019-05-21T14:24:10.514Z,12.80
2019-05-21T14:26:39.574Z,12.80
2019-05-21T14:29:08.627Z,12.70
2019-05-21T14:31:37.578Z,12.70
2019-05-21T14:34:06.738Z,12.60
2019-05-21T14:36:35.941Z,12.60
2019-05-21T14:39:12.133Z,12.60
2019-05-21T14:41:41.188Z,12.60
2019-05-21T14:44:10.241Z,12.70
2019-05-21T14:46:39.255Z,12.60
2019-05-21T14:49:10.229Z,12.70
2019-05-21T14:51:39.465Z,12.70
2019-05-21T14:54:23.762Z,12.60
2019-05-21T14:56:39.222Z,12.70
2019-05-21T14:59:08.306Z,12.70
2019-05-21T15:01:37.584Z,12.70
2019-05-21T15:04:06.755Z,12.70
2019-05-21T15:06:35.874Z,12.70
2019-05-21T15:09:05.652Z,12.70
2019-05-21T15:11:34.685Z,12.60
2019-05-21T15:14:03.688Z,12.70
2019-05-21T15:16:32.922Z,12.60
2019-05-21T15:19:02.002Z,12.60
2019-05-21T15:21:35.741Z,12.60
2019-05-21T15:24:05.089Z,12.70
2019-05-21T15:26:34.425Z,12.60
2019-05-21T15:29:03.487Z,12.60
2019-05-21T15:31:32.590Z,12.50
2019-05-21T15:34:01.617Z,12.60
2019-05-21T15:36:30.811Z,12.50
2019-05-21T15:38:59.801Z,12.50
2019-05-21T15:41:28.699Z,12.60
2019-05-21T15:43:57.768Z,12.50
2019-05-21T15:46:26.749Z,12.60
2019-05-21T15:48:55.722Z,12.60
2019-05-21T15:51:24.930Z,12.50
2019-05-21T15:53:53.934Z,12.50
2019-05-21T15:56:22.972Z,12.50
2019-05-21T15:58:51.993Z,12.50
2019-05-21T16:01:20.950Z,12.50
2019-05-21T16:03:50.110Z,12.50
2019-05-21T16:06:19.162Z,12.60
2019-05-21T16:08:48.507Z,12.50
2019-05-21T16:11:28.180Z,12.50
2019-05-21T16:13:48.627Z,12.50
2019-05-21T16:16:17.607Z,12.50
2019-05-21T16:18:46.679Z,12.40
2019-05-21T16:21:15.732Z,12.40
2019-05-21T16:23:44.804Z,12.40
2019-05-21T16:26:13.881Z,12.50
2019-05-21T16:28:42.900Z,12.40
2019-05-21T16:31:11.874Z,12.50
2019-05-21T16:33:41.188Z,12.40
2019-05-21T16:36:10.508Z,12.40
2019-05-21T16:38:39.510Z,12.40
2019-05-21T16:41:08.588Z,12.40
2019-05-21T16:43:37.633Z,12.40
2019-05-21T16:46:10.054Z,12.40
2019-05-21T16:48:37.455Z,12.40
2019-05-21T16:51:06.642Z,12.40
2019-05-21T16:53:35.677Z,12.40
2019-05-21T16:56:04.788Z,12.40
2019-05-21T16:58:33.906Z,12.30
2019-05-21T17:01:04.697Z,12.30
2019-05-21T17:03:36.449Z,12.30
2019-05-21T17:06:04.473Z,12.30
2019-05-21T17:08:33.529Z,12.30
2019-05-21T17:11:02.546Z,12.30
2019-05-21T17:13:31.992Z,12.30
2019-05-21T17:16:00.970Z,12.30
2019-05-21T17:18:30.069Z,12.30
2019-05-21T17:20:59.045Z,12.30
2019-05-21T17:23:28.185Z,12.20
2019-05-21T17:25:57.194Z,12.20
2019-05-21T17:28:26.266Z,12.20
2019-05-21T17:30:55.348Z,12.30
2019-05-21T17:33:24.854Z,12.30
2019-05-21T17:35:53.877Z,12.30
2019-05-21T17:38:24.602Z,12.30
2019-05-21T17:40:53.915Z,12.20
2019-05-21T17:43:23.015Z,12.30
2019-05-21T17:45:51.988Z,12.30
2019-05-21T17:48:21.266Z,12.30
2019-05-21T17:50:50.360Z,12.20
2019-05-21T17:53:19.565Z,12.20
2019-05-21T17:55:48.759Z,12.10
2019-05-21T17:58:18.973Z,12.20
2019-05-21T18:00:58.493Z,12.20
2019-05-21T18:03:28.778Z,12.20
2019-05-21T18:05:58.135Z,12.20
2019-05-21T18:08:27.394Z,12.20
2019-05-21T18:10:56.686Z,12.20
2019-05-21T18:13:25.999Z,12.20
2019-05-21T18:15:55.321Z,12.10
2019-05-21T18:18:24.648Z,12.10
2019-05-21T18:20:53.764Z,12.10
2019-05-21T18:23:22.863Z,12.00
2019-05-21T18:25:51.850Z,12.10
2019-05-21T18:28:20.978Z,12.10
2019-05-21T18:30:50.244Z,12.10
2019-05-21T18:33:20.428Z,12.00
2019-05-21T18:35:49.484Z,12.00
2019-05-21T18:38:18.538Z,12.00
2019-05-21T18:40:47.615Z,12.00
2019-05-21T18:43:16.893Z,12.00
2019-05-21T18:45:46.017Z,12.00
2019-05-21T18:48:15.117Z,12.00
2019-05-21T18:50:44.198Z,11.90
2019-05-21T18:53:13.437Z,11.90
2019-05-21T18:55:43.332Z,11.90
2019-05-21T18:58:12.464Z,11.90
2019-05-21T19:00:41.555Z,11.90
2019-05-21T19:03:10.578Z,11.80
2019-05-21T19:05:39.679Z,11.80
2019-05-21T19:08:08.711Z,11.80
2019-05-21T19:10:37.768Z,11.80
2019-05-21T19:13:07.072Z,11.80
2019-05-21T19:15:36.127Z,11.80
2019-05-21T19:18:05.270Z,11.80
2019-05-21T19:20:34.245Z,11.80
2019-05-21T19:23:03.344Z,11.80
2019-05-21T19:25:32.405Z,11.80
2019-05-21T19:28:01.460Z,11.80
2019-05-21T19:30:31.768Z,11.70
2019-05-21T19:33:00.738Z,11.70
2019-05-21T19:35:32.926Z,11.70
2019-05-21T19:38:01.885Z,11.70
2019-05-21T19:40:31.036Z,11.70
2019-05-21T19:43:00.324Z,11.70
2019-05-21T19:45:31.396Z,11.70
2019-05-21T19:48:00.227Z,11.70
2019-05-21T19:50:29.454Z,11.70
2019-05-21T19:52:58.522Z,11.70
2019-05-21T19:55:28.836Z,11.70
2019-05-21T19:57:57.937Z,11.70
2019-05-21T20:00:29.409Z,11.70
2019-05-21T20:02:58.459Z,11.70
2019-05-21T20:05:28.593Z,11.70
2019-05-21T20:07:57.704Z,11.70
2019-05-21T20:10:27.002Z,11.70
2019-05-21T20:12:56.265Z,11.70
2019-05-21T20:15:25.568Z,11.70
2019-05-21T20:18:07.011Z,11.70
2019-05-21T20:20:26.188Z,11.70
2019-05-21T20:22:55.920Z,11.70
2019-05-21T20:25:25.561Z,11.70
2019-05-21T20:27:54.664Z,11.70
2019-05-21T20:30:24.837Z,11.80
2019-05-21T20:32:53.930Z,11.70
2019-05-21T20:35:25.531Z,11.80
2019-05-21T20:37:54.934Z,11.70
2019-05-21T20:40:24.333Z,11.70
2019-05-21T20:42:54.380Z,11.70
2019-05-21T20:45:25.452Z,11.80
2019-05-21T20:47:55.787Z,11.80
2019-05-21T20:50:26.260Z,11.80
2019-05-21T20:52:55.302Z,11.80
2019-05-21T20:55:25.546Z,11.80
2019-05-21T20:57:55.004Z,11.80
2019-05-21T21:00:29.748Z,11.80
2019-05-21T21:02:59.483Z,11.80
2019-05-21T21:05:28.746Z,11.80
2019-05-21T21:07:57.990Z,11.80
2019-05-21T21:10:27.246Z,11.80
2019-05-21T21:12:56.565Z,11.80
2019-05-21T21:15:26.145Z,11.80
2019-05-21T21:17:55.323Z,11.80
2019-05-21T21:20:25.925Z,11.80
2019-05-21T21:22:54.949Z,11.80
2019-05-21T21:25:24.915Z,11.80
2019-05-21T21:27:53.889Z,11.80
2019-05-21T21:30:22.865Z,11.80
2019-05-21T21:32:53.660Z,11.90
2019-05-21T21:35:22.749Z,11.80
2019-05-21T21:37:52.426Z,11.90
2019-05-21T21:40:22.999Z,11.90
2019-05-21T21:42:52.425Z,11.80
2019-05-21T21:45:21.598Z,11.80
2019-05-21T21:47:50.905Z,11.80
2019-05-21T21:50:21.497Z,11.80
2019-05-21T21:52:50.783Z,11.90
2019-05-21T21:55:19.747Z,11.80
2019-05-21T21:57:48.742Z,11.80
2019-05-21T22:01:37.507Z,11.90
2019-05-21T22:04:08.447Z,11.80
2019-05-21T22:06:37.632Z,11.80
2019-05-21T22:09:10.328Z,11.80
2019-05-21T22:11:39.585Z,11.80
2019-05-21T22:14:09.276Z,11.80
2019-05-21T22:16:38.309Z,11.80
2019-05-21T22:19:08.507Z,11.80
2019-05-21T22:21:37.971Z,11.80
2019-05-21T22:24:07.736Z,11.80
2019-05-21T22:26:37.079Z,11.90
2019-05-21T22:29:05.987Z,11.80
2019-05-21T22:31:35.224Z,11.80
2019-05-21T22:34:04.439Z,11.80
2019-05-21T22:36:33.432Z,11.80
2019-05-21T22:39:02.392Z,11.80
2019-05-21T22:44:34.410Z,11.80
2019-05-21T22:47:05.088Z,11.80
2019-05-21T22:49:34.226Z,11.80
2019-05-21T22:52:03.206Z,11.90
2019-05-21T22:54:32.168Z,11.90
2019-05-21T22:57:55.172Z,11.80
2019-05-21T23:00:24.317Z,11.80
2019-05-21T23:02:53.319Z,11.80
2019-05-21T23:05:23.317Z,11.80
2019-05-21T23:07:52.363Z,11.80
2019-05-21T23:10:23.009Z,11.80
2019-05-21T23:12:52.196Z,11.80
2019-05-21T23:15:25.576Z,11.80
2019-05-21T23:17:51.920Z,11.90
2019-05-21T23:20:21.181Z,11.90
2019-05-21T23:22:51.857Z,11.90
2019-05-21T23:25:22.245Z,11.80
2019-05-21T23:27:52.056Z,11.80
2019-05-21T23:30:22.132Z,11.80
2019-05-21T23:32:51.488Z,11.90
2019-05-21T23:35:21.932Z,11.80
2019-05-21T23:37:51.526Z,11.90
2019-05-21T23:40:22.225Z,11.90
2019-05-21T23:42:51.482Z,11.90
2019-05-21T23:45:20.751Z,11.90
2019-05-21T23:47:49.904Z,11.90
2019-05-21T23:50:20.685Z,12.00
2019-05-21T23:52:51.412Z,12.00
2019-05-21T23:55:20.379Z,12.10
2019-05-21T23:57:49.360Z,12.10
